createdAt,value
2023-03-06T00:06:33.832Z,100.00
2023-03-06T00:13:53.330Z,100.00
2023-03-06T00:21:12.956Z,100.00
2023-03-06T00:28:32.722Z,100.00
2023-03-06T00:35:50.948Z,100.00
2023-03-06T00:43:10.638Z,100.00
2023-03-06T00:50:28.874Z,100.00
2023-03-06T00:57:47.116Z,100.00
2023-03-06T01:05:07.955Z,100.00
2023-03-06T01:12:26.281Z,100.00
2023-03-06T01:19:44.546Z,100.00
2023-03-06T01:27:07.066Z,100.00
2023-03-06T01:34:25.345Z,100.00
2023-03-06T01:41:43.517Z,100.00
2023-03-06T01:49:06.075Z,100.00
2023-03-06T01:56:25.183Z,100.00
2023-03-06T02:03:44.022Z,100.00
2023-03-06T02:11:14.341Z,100.00
2023-03-06T02:18:32.736Z,100.00
2023-03-06T02:25:53.603Z,100.00
2023-03-06T02:33:13.628Z,100.00
2023-03-06T02:40:31.876Z,100.00
2023-03-06T02:47:51.697Z,100.00
2023-03-06T02:55:10.628Z,100.00
2023-03-06T03:02:28.933Z,100.00
2023-03-06T03:09:48.769Z,100.00
2023-03-06T03:17:07.862Z,100.00
2023-03-06T03:24:26.558Z,100.00
2023-03-06T03:31:47.504Z,100.00
2023-03-06T03:39:06.324Z,100.00
2023-03-06T03:46:24.726Z,100.00
2023-03-06T03:53:46.303Z,100.00
2023-03-06T04:01:07.518Z,100.00
2023-03-06T04:08:27.444Z,100.00
2023-03-06T04:15:47.386Z,100.00
2023-03-06T04:23:05.762Z,100.00
2023-03-06T04:30:27.506Z,100.00
2023-03-06T04:37:47.563Z,100.00
2023-03-06T04:45:22.910Z,100.00
2023-03-06T04:52:41.757Z,100.00
2023-03-06T05:00:11.173Z,100.00
2023-03-06T05:07:29.724Z,100.00
2023-03-06T05:14:48.274Z,100.00
2023-03-06T05:22:08.063Z,100.00
2023-03-06T05:29:26.342Z,100.00
2023-03-06T05:36:44.885Z,100.00
2023-03-06T05:44:04.597Z,100.00
2023-03-06T05:51:26.797Z,100.00
2023-03-06T05:58:45.213Z,100.00
2023-03-06T06:06:06.964Z,100.00
2023-03-06T06:13:25.312Z,100.00
2023-03-06T06:20:43.437Z,100.00
2023-03-06T06:28:03.532Z,100.00
2023-03-06T06:35:21.876Z,100.00
2023-03-06T06:42:40.603Z,100.00
2023-03-06T06:50:03.211Z,100.00
2023-03-06T06:57:22.034Z,100.00
2023-03-06T07:04:52.304Z,100.00
2023-03-06T07:12:20.151Z,100.00
2023-03-06T07:19:39.323Z,100.00
2023-03-06T07:26:57.789Z,100.00
2023-03-06T07:34:17.475Z,100.00
2023-03-06T07:41:35.968Z,100.00
2023-03-06T07:48:54.380Z,100.00
2023-03-06T07:56:14.638Z,100.00
2023-03-06T08:03:33.164Z,100.00
2023-03-06T08:10:51.420Z,100.00
2023-03-06T08:18:11.160Z,100.00
2023-03-06T08:25:30.545Z,100.00
2023-03-06T08:32:48.821Z,100.00
2023-03-06T08:40:10.404Z,100.00
2023-03-06T08:47:28.617Z,100.00
2023-03-06T08:54:47.018Z,100.00
2023-03-06T09:02:07.983Z,100.00
2023-03-06T09:09:26.408Z,100.00
2023-03-06T09:16:44.569Z,100.00
2023-03-06T09:24:04.219Z,100.00
2023-03-06T09:31:22.535Z,100.00
2023-03-06T09:38:40.770Z,100.00
2023-03-06T09:46:00.815Z,100.00
2023-03-06T09:53:39.487Z,100.00
2023-03-06T10:01:02.895Z,100.00
2023-03-06T10:08:28.636Z,100.00
2023-03-06T10:15:47.716Z,100.00
2023-03-06T10:23:33.980Z,100.00
2023-03-06T10:30:56.758Z,100.00
2023-03-06T10:38:20.952Z,100.00
2023-03-06T10:45:50.410Z,100.00
2023-03-06T10:53:21.479Z,100.00
2023-03-06T11:00:39.810Z,98.17
2023-03-06T11:08:00.744Z,96.08
2023-03-06T11:15:22.441Z,93.22
2023-03-06T11:22:41.379Z,93.89
2023-03-06T11:30:01.786Z,90.57
2023-03-06T11:37:38.678Z,90.38
2023-03-06T11:45:10.203Z,85.35
2023-03-06T11:52:31.025Z,89.97
2023-03-06T12:00:11.458Z,87.68
2023-03-06T12:07:32.207Z,86.70
2023-03-06T12:15:00.837Z,80.34
2023-03-06T12:22:53.408Z,80.20
2023-03-06T12:30:33.537Z,76.83
2023-03-06T12:38:01.624Z,76.47
2023-03-06T12:45:31.580Z,73.11
2023-03-06T12:52:50.040Z,75.12
2023-03-06T13:00:17.268Z,79.56
2023-03-06T13:07:49.400Z,100.00
2023-03-06T13:15:32.347Z,100.00
2023-03-06T13:22:50.717Z,100.00
2023-03-06T13:30:27.220Z,100.00
2023-03-06T13:37:52.382Z,100.00
2023-03-06T13:45:16.195Z,100.00
2023-03-06T13:52:41.373Z,100.00
2023-03-06T14:00:27.082Z,100.00
2023-03-06T14:07:47.227Z,100.00
2023-03-06T14:15:12.531Z,100.00
2023-03-06T14:22:31.276Z,100.00
2023-03-06T14:29:50.796Z,100.00
2023-03-06T14:37:21.199Z,100.00
2023-03-06T14:44:39.323Z,100.00
2023-03-06T14:52:00.693Z,100.00
2023-03-06T14:59:22.478Z,100.00
2023-03-06T15:06:41.885Z,100.00
2023-03-06T15:14:06.025Z,100.00
2023-03-06T15:21:26.710Z,100.00
2023-03-06T15:28:45.003Z,100.00
2023-03-06T15:36:06.414Z,100.00
2023-03-06T15:43:24.767Z,100.00
2023-03-06T15:50:43.011Z,100.00
2023-03-06T15:58:03.322Z,100.00
2023-03-06T16:05:23.009Z,100.00
2023-03-06T16:12:43.614Z,100.00
2023-03-06T16:20:04.072Z,100.00
2023-03-06T16:27:25.799Z,100.00
2023-03-06T16:34:43.934Z,100.00
2023-03-06T16:42:03.679Z,100.00
2023-03-06T16:49:23.700Z,100.00
2023-03-06T16:56:41.887Z,100.00
2023-03-06T17:04:01.621Z,100.00
2023-03-06T17:11:20.798Z,100.00
2023-03-06T17:18:38.933Z,100.00
2023-03-06T17:26:05.622Z,100.00
2023-03-06T17:33:24.047Z,100.00
2023-03-06T17:40:42.267Z,100.00
2023-03-06T17:48:01.889Z,100.00
2023-03-06T17:55:20.085Z,100.00
2023-03-06T18:02:38.327Z,100.00
2023-03-06T18:09:58.040Z,100.00
2023-03-06T18:17:16.359Z,100.00
2023-03-06T18:24:35.678Z,100.00
2023-03-06T18:31:56.939Z,100.00
2023-03-06T18:39:15.940Z,100.00
2023-03-06T18:46:35.862Z,100.00
2023-03-06T18:53:57.832Z,100.00
2023-03-06T19:01:16.638Z,100.00
2023-03-06T19:08:36.208Z,100.00
2023-03-06T19:15:57.239Z,100.00
2023-03-06T19:23:15.439Z,100.00
2023-03-06T19:30:33.795Z,100.00
2023-03-06T19:37:53.542Z,100.00
2023-03-06T19:45:12.659Z,100.00
2023-03-06T19:52:31.040Z,100.00
2023-03-06T19:59:52.397Z,100.00
2023-03-06T20:07:10.721Z,100.00
2023-03-06T20:14:28.995Z,100.00
2023-03-06T20:21:48.953Z,100.00
2023-03-06T20:29:07.480Z,100.00
2023-03-06T20:36:29.013Z,100.00
2023-03-06T20:43:48.940Z,100.00
2023-03-06T20:51:11.041Z,100.00
2023-03-06T20:58:31.628Z,100.00
2023-03-06T21:05:51.333Z,100.00
2023-03-06T21:13:09.748Z,100.00
2023-03-06T21:20:27.942Z,100.00
2023-03-06T21:27:47.874Z,100.00
2023-03-06T21:35:06.751Z,100.00
2023-03-06T21:42:25.041Z,100.00
2023-03-06T21:49:44.764Z,100.00
2023-03-06T21:57:03.186Z,100.00
2023-03-06T22:04:21.400Z,100.00
2023-03-06T22:11:42.951Z,100.00
2023-03-06T22:19:01.170Z,100.00
2023-03-06T22:26:19.394Z,100.00
2023-03-06T22:33:39.476Z,100.00
2023-03-06T22:40:58.078Z,100.00
2023-03-06T22:48:17.017Z,100.00
2023-03-06T22:55:37.342Z,100.00
2023-03-06T23:02:56.016Z,100.00
2023-03-06T23:10:14.178Z,100.00
2023-03-06T23:17:53.684Z,100.00
2023-03-06T23:25:30.285Z,100.00
2023-03-06T23:32:49.780Z,100.00
2023-03-06T23:40:11.318Z,100.00
2023-03-06T23:47:32.617Z,100.00
2023-03-06T23:54:50.948Z,100.00
